Time;durP1;ratioP1;P1;durP2;ratioP2;P2;SDS_P1;SDS_P2;PMS_P1;PMS_P2;Temp;Humidity;BMP_temperature;BMP_pressure;BME280_temperature;BME280_humidity;BME280_pressure;Samples;Min_cycle;Max_cycle;Signal;HPM_P1;HPM_P2
2020/12/20 00:01:31;;;;;;;;;;;19.10;40.20;;;;;;491904;240;1056;-53
2020/12/20 00:03:33;;;;;;;;;;;19.10;40.30;;;;;;491658;240;1243;-53
2020/12/20 00:05:34;;;;;;;;;;;19.00;40.30;;;;;;491684;240;1182;-53
2020/12/20 00:07:35;;;;;;;;;;;19.00;40.30;;;;;;491598;240;1344;-53
2020/12/20 00:09:37;;;;;;;;;;;19.00;40.40;;;;;;491683;240;1132;-53
2020/12/20 00:11:38;;;;;;;;;;;19.00;40.40;;;;;;491726;240;1120;-53
2020/12/20 00:13:39;;;;;;;;;;;19.00;40.50;;;;;;491639;240;1144;-53
2020/12/20 00:15:41;;;;;;;;;;;19.00;40.50;;;;;;491742;240;2144;-53
2020/12/20 00:17:42;;;;;;;;;;;18.90;39.20;;;;;;491725;240;1412;-53
2020/12/20 00:19:43;;;;;;;;;;;18.90;40.60;;;;;;491627;240;1176;-53
2020/12/20 00:21:44;;;;;;;;;;;18.90;40.60;;;;;;491652;240;993;-53
2020/12/20 00:23:46;;;;;;;;;;;18.90;40.60;;;;;;491595;240;1418;-53
2020/12/20 00:25:47;;;;;;;;;;;18.80;40.60;;;;;;491823;240;1087;-53
2020/12/20 00:27:48;;;;;;;;;;;18.80;40.70;;;;;;491671;240;1204;-53
2020/12/20 00:29:50;;;;;;;;;;;18.80;39.30;;;;;;491673;240;1149;-53
2020/12/20 00:31:51;;;;;;;;;;;18.80;40.70;;;;;;491636;240;1026;-53
2020/12/20 00:33:52;;;;;;;;;;;18.80;40.70;;;;;;491765;240;1242;-53
2020/12/20 00:35:53;;;;;;;;;;;18.80;40.70;;;;;;491589;240;2164;-53
2020/12/20 00:37:55;;;;;;;;;;;18.80;40.80;;;;;;491958;240;1022;-53
2020/12/20 00:39:56;;;;;;;;;;;18.70;40.80;;;;;;491911;240;1069;-53
2020/12/20 00:41:57;;;;;;;;;;;18.70;40.80;;;;;;491737;240;1159;-53
2020/12/20 00:43:59;;;;;;;;;;;18.70;40.80;;;;;;491688;240;948;-53
2020/12/20 00:46:00;;;;;;;;;;;18.70;40.80;;;;;;491589;240;1113;-53
2020/12/20 00:48:01;;;;;;;;;;;18.70;40.80;;;;;;491639;240;1280;-52
2020/12/20 00:50:02;;;;;;;;;;;18.70;40.90;;;;;;491914;239;1282;-53
2020/12/20 00:52:04;;;;;;;;;;;18.70;40.90;;;;;;491697;240;1167;-53
2020/12/20 00:54:05;;;;;;;;;;;18.60;39.60;;;;;;491635;240;1073;-53
2020/12/20 00:56:06;;;;;;;;;;;18.60;40.90;;;;;;491758;240;2132;-53
2020/12/20 00:58:07;;;;;;;;;;;18.60;40.90;;;;;;491599;240;1162;-53
2020/12/20 01:00:09;;;;;;;;;;;18.60;40.90;;;;;;491634;240;1062;-53
2020/12/20 01:02:10;;;;;;;;;;;18.60;40.90;;;;;;491742;240;1320;-53
2020/12/20 01:04:11;;;;;;;;;;;18.60;41.00;;;;;;491936;240;1345;-53
2020/12/20 01:06:13;;;;;;;;;;;18.60;41.00;;;;;;491594;240;1196;-53
2020/12/20 01:08:14;;;;;;;;;;;18.50;41.00;;;;;;491562;240;1230;-53
2020/12/20 01:10:15;;;;;;;;;;;18.50;41.00;;;;;;491596;240;978;-52
2020/12/20 01:12:16;;;;;;;;;;;18.50;41.00;;;;;;491573;240;1121;-53
2020/12/20 01:14:18;;;;;;;;;;;18.50;41.00;;;;;;491906;240;1191;-53
2020/12/20 01:16:19;;;;;;;;;;;18.50;41.00;;;;;;491669;240;2136;-53
2020/12/20 01:18:20;;;;;;;;;;;18.50;41.00;;;;;;491683;240;1214;-53
2020/12/20 01:20:22;;;;;;;;;;;18.50;41.00;;;;;;491628;240;1136;-53
2020/12/20 01:22:23;;;;;;;;;;;18.50;41.10;;;;;;491610;240;1334;-53
2020/12/20 01:24:24;;;;;;;;;;;18.50;41.10;;;;;;491645;240;1018;-52
2020/12/20 01:26:28;;;;;;;;;;;18.40;39.70;;;;;;491731;240;1063;-53
2020/12/20 01:28:27;;;;;;;;;;;18.40;41.00;;;;;;491604;242;2263;-53
2020/12/20 01:30:28;;;;;;;;;;;18.40;41.00;;;;;;491614;240;1064;-53
2020/12/20 01:32:29;;;;;;;;;;;18.40;41.00;;;;;;491933;240;1071;-53
2020/12/20 01:34:30;;;;;;;;;;;18.40;39.70;;;;;;491594;240;1029;-53
2020/12/20 01:36:32;;;;;;;;;;;18.40;41.10;;;;;;491656;240;2210;-53
2020/12/20 01:38:33;;;;;;;;;;;18.40;41.10;;;;;;491588;240;1053;-53
2020/12/20 01:40:34;;;;;;;;;;;18.40;41.10;;;;;;491663;240;1123;-53
2020/12/20 01:42:36;;;;;;;;;;;18.40;41.10;;;;;;491568;240;1056;-53
2020/12/20 01:44:39;;;;;;;;;;;18.40;41.10;;;;;;491770;240;1052;-53
2020/12/20 01:46:38;;;;;;;;;;;18.40;41.10;;;;;;491563;242;2162;-52
2020/12/20 01:48:40;;;;;;;;;;;18.40;41.10;;;;;;491603;240;982;-53
2020/12/20 01:50:41;;;;;;;;;;;18.40;41.10;;;;;;491610;240;1300;-52
2020/12/20 01:52:42;;;;;;;;;;;18.30;41.10;;;;;;491642;240;1178;-52
2020/12/20 01:54:43;;;;;;;;;;;18.30;41.10;;;;;;491744;240;1076;-53
2020/12/20 01:56:45;;;;;;;;;;;18.30;41.10;;;;;;491604;240;2132;-53
2020/12/20 01:58:46;;;;;;;;;;;18.30;41.10;;;;;;491696;240;1034;-53
2020/12/20 02:00:47;;;;;;;;;;;18.30;41.10;;;;;;491916;240;1044;-52
2020/12/20 02:02:49;;;;;;;;;;;18.30;41.10;;;;;;491742;240;1191;-53
2020/12/20 02:04:50;;;;;;;;;;;18.30;41.10;;;;;;491772;240;1029;-53
2020/12/20 02:06:51;;;;;;;;;;;18.30;41.10;;;;;;491672;240;1161;-53
2020/12/20 02:08:52;;;;;;;;;;;18.30;41.10;;;;;;491896;240;1016;-53
2020/12/20 02:10:54;;;;;;;;;;;18.30;41.10;;;;;;491778;240;1100;-53
2020/12/20 02:12:55;;;;;;;;;;;18.30;41.20;;;;;;491715;240;1006;-52
2020/12/20 02:14:57;;;;;;;;;;;18.30;41.20;;;;;;491628;240;1059;-53
2020/12/20 02:16:58;;;;;;;;;;;18.30;41.20;;;;;;492008;240;2139;-53
2020/12/20 02:18:59;;;;;;;;;;;18.30;41.20;;;;;;491639;240;1021;-53
2020/12/20 02:21:00;;;;;;;;;;;18.20;41.10;;;;;;491667;240;1146;-53
2020/12/20 02:23:02;;;;;;;;;;;18.20;41.20;;;;;;491625;240;1155;-53
2020/12/20 02:25:03;;;;;;;;;;;18.30;41.20;;;;;;492077;240;1062;-53
2020/12/20 02:27:04;;;;;;;;;;;18.30;41.20;;;;;;491610;240;1214;-53
2020/12/20 02:29:06;;;;;;;;;;;18.20;41.10;;;;;;492074;240;1017;-53
2020/12/20 02:31:07;;;;;;;;;;;18.20;41.10;;;;;;491787;240;1073;-53
2020/12/20 02:33:08;;;;;;;;;;;18.20;41.10;;;;;;491813;240;1147;-53
2020/12/20 02:35:09;;;;;;;;;;;18.20;41.20;;;;;;491764;240;1051;-53
2020/12/20 02:37:11;;;;;;;;;;;18.20;41.10;;;;;;491720;240;2140;-53
2020/12/20 02:39:12;;;;;;;;;;;18.20;41.10;;;;;;491963;240;1041;-53
2020/12/20 02:41:13;;;;;;;;;;;18.20;41.10;;;;;;491579;240;1273;-53
2020/12/20 02:43:14;;;;;;;;;;;18.30;41.10;;;;;;491882;240;1157;-53
2020/12/20 02:45:16;;;;;;;;;;;18.30;41.00;;;;;;491728;240;1021;-53
2020/12/20 02:47:17;;;;;;;;;;;18.30;40.90;;;;;;491592;240;1421;-53
2020/12/20 02:49:18;;;;;;;;;;;18.30;40.80;;;;;;491678;240;1043;-53
2020/12/20 02:51:20;;;;;;;;;;;18.40;40.90;;;;;;491957;240;1335;-53
2020/12/20 02:53:21;;;;;;;;;;;18.40;40.80;;;;;;491732;240;1093;-53
2020/12/20 02:55:22;;;;;;;;;;;18.40;40.80;;;;;;491783;240;1140;-53
2020/12/20 02:57:23;;;;;;;;;;;18.40;40.70;;;;;;491619;240;2137;-52
2020/12/20 02:59:25;;;;;;;;;;;18.40;40.70;;;;;;491723;240;990;-53
2020/12/20 03:01:26;;;;;;;;;;;18.40;40.60;;;;;;491748;240;1178;-53
2020/12/20 03:03:27;;;;;;;;;;;18.40;39.20;;;;;;491732;240;993;-53
2020/12/20 03:05:28;;;;;;;;;;;18.50;40.60;;;;;;491818;240;1154;-52
2020/12/20 03:07:30;;;;;;;;;;;18.50;40.60;;;;;;491823;240;1382;-53
2020/12/20 03:09:31;;;;;;;;;;;18.50;40.50;;;;;;491676;240;1214;-53
2020/12/20 03:11:32;;;;;;;;;;;18.50;40.40;;;;;;491780;240;1295;-53
2020/12/20 03:13:34;;;;;;;;;;;18.60;40.50;;;;;;491776;240;1051;-53
2020/12/20 03:15:38;;;;;;;;;;;18.60;40.40;;;;;;491649;240;1556;-53
2020/12/20 03:17:36;;;;;;;;;;;18.60;40.40;;;;;;491637;242;2183;-53
2020/12/20 03:19:37;;;;;;;;;;;18.60;40.30;;;;;;491872;240;1147;-53
2020/12/20 03:21:39;;;;;;;;;;;18.70;40.40;;;;;;491779;240;1211;-53
2020/12/20 03:23:40;;;;;;;;;;;18.70;40.30;;;;;;491884;240;1009;-53
2020/12/20 03:25:41;;;;;;;;;;;18.70;40.30;;;;;;491792;240;1073;-53
2020/12/20 03:27:42;;;;;;;;;;;18.70;40.20;;;;;;491630;240;1267;-53
2020/12/20 03:29:44;;;;;;;;;;;18.70;40.20;;;;;;491601;240;1064;-53
2020/12/20 03:31:45;;;;;;;;;;;18.70;40.20;;;;;;491594;240;1087;-53
2020/12/20 03:33:46;;;;;;;;;;;18.80;40.20;;;;;;491749;240;1043;-53
2020/12/20 03:35:48;;;;;;;;;;;18.80;40.10;;;;;;491781;240;1068;-53
2020/12/20 03:37:49;;;;;;;;;;;18.80;40.10;;;;;;491685;240;2140;-53
2020/12/20 03:39:51;;;;;;;;;;;18.80;40.10;;;;;;491768;240;1221;-53
2020/12/20 03:41:52;;;;;;;;;;;18.80;40.10;;;;;;491672;240;1119;-53
2020/12/20 03:43:53;;;;;;;;;;;18.80;40.00;;;;;;491815;240;1086;-53
2020/12/20 03:45:54;;;;;;;;;;;18.90;40.00;;;;;;491627;240;1101;-53
2020/12/20 03:47:56;;;;;;;;;;;18.90;40.00;;;;;;491690;240;1186;-53
2020/12/20 03:49:57;;;;;;;;;;;18.90;38.70;;;;;;491783;240;1231;-53
2020/12/20 03:51:58;;;;;;;;;;;18.90;39.90;;;;;;491609;240;1218;-53
2020/12/20 03:54:00;;;;;;;;;;;18.90;39.90;;;;;;491698;240;1034;-53
2020/12/20 03:56:01;;;;;;;;;;;18.90;39.80;;;;;;491508;242;1492;-53
2020/12/20 03:58:02;;;;;;;;;;;18.90;39.80;;;;;;491715;240;2196;-53
2020/12/20 04:00:03;;;;;;;;;;;19.00;39.90;;;;;;491603;240;1093;-54
2020/12/20 04:02:05;;;;;;;;;;;19.00;39.80;;;;;;491703;240;986;-53
2020/12/20 04:04:06;;;;;;;;;;;19.00;39.80;;;;;;491718;240;1085;-52
2020/12/20 04:06:07;;;;;;;;;;;19.00;39.80;;;;;;491538;240;1063;-53
2020/12/20 04:08:09;;;;;;;;;;;19.00;39.70;;;;;;491616;240;1223;-53
2020/12/20 04:10:10;;;;;;;;;;;19.00;39.70;;;;;;491656;240;1045;-53
2020/12/20 04:12:11;;;;;;;;;;;19.00;39.70;;;;;;491579;240;1072;-53
2020/12/20 04:14:12;;;;;;;;;;;19.00;39.70;;;;;;491642;240;1032;-53
2020/12/20 04:16:14;;;;;;;;;;;19.00;39.70;;;;;;491617;240;950;-52
2020/12/20 04:18:15;;;;;;;;;;;19.00;39.60;;;;;;491792;240;2121;-53
2020/12/20 04:20:16;;;;;;;;;;;19.10;39.70;;;;;;491707;240;1065;-53
2020/12/20 04:22:17;;;;;;;;;;;19.10;39.60;;;;;;491823;240;1182;-53
2020/12/20 04:24:19;;;;;;;;;;;19.10;39.60;;;;;;491745;240;1029;-53
2020/12/20 04:26:20;;;;;;;;;;;19.10;39.60;;;;;;491746;240;1059;-53
2020/12/20 04:28:21;;;;;;;;;;;19.10;39.60;;;;;;491701;240;1150;-53
2020/12/20 04:30:24;;;;;;;;;;;19.10;39.50;;;;;;491723;240;1026;-53
2020/12/20 04:32:24;;;;;;;;;;;19.20;39.60;;;;;;491642;240;1513;-53
2020/12/20 04:34:25;;;;;;;;;;;19.20;39.50;;;;;;491887;240;1022;-53
2020/12/20 04:36:27;;;;;;;;;;;19.20;39.50;;;;;;491648;240;1159;-53
2020/12/20 04:38:28;;;;;;;;;;;19.20;39.50;;;;;;491586;242;2255;-53
2020/12/20 04:40:29;;;;;;;;;;;19.20;39.50;;;;;;491905;240;1336;-53
2020/12/20 04:42:30;;;;;;;;;;;19.20;39.50;;;;;;491637;240;1163;-53
2020/12/20 04:44:32;;;;;;;;;;;19.20;39.40;;;;;;492121;240;1049;-53
2020/12/20 04:46:33;;;;;;;;;;;19.20;39.50;;;;;;491623;240;1394;-53
2020/12/20 04:48:34;;;;;;;;;;;19.30;39.50;;;;;;491698;240;1037;-53
2020/12/20 04:50:35;;;;;;;;;;;19.30;39.50;;;;;;491611;240;1365;-53
2020/12/20 04:52:37;;;;;;;;;;;19.30;39.50;;;;;;491664;240;1168;-54
2020/12/20 04:54:38;;;;;;;;;;;19.30;39.40;;;;;;491636;240;1087;-53
2020/12/20 04:56:39;;;;;;;;;;;19.30;39.40;;;;;;491775;240;1183;-53
2020/12/20 04:58:40;;;;;;;;;;;19.30;39.40;;;;;;491779;240;2184;-53
2020/12/20 05:00:44;;;;;;;;;;;19.30;39.40;;;;;;491575;240;1249;-53
2020/12/20 05:02:45;;;;;;;;;;;19.30;39.40;;;;;;491614;240;1168;-52
2020/12/20 05:04:46;;;;;;;;;;;19.30;39.30;;;;;;491755;240;3098;-53
2020/12/20 05:06:48;;;;;;;;;;;19.30;39.30;;;;;;491614;240;1267;-53
2020/12/20 05:08:49;;;;;;;;;;;19.30;39.30;;;;;;491716;240;1215;-53
2020/12/20 05:10:50;;;;;;;;;;;19.40;39.30;;;;;;491564;240;1321;-53
2020/12/20 05:12:52;;;;;;;;;;;19.40;39.30;;;;;;491705;240;1203;-53
2020/12/20 05:14:53;;;;;;;;;;;19.40;39.30;;;;;;491646;240;1000;-53
2020/12/20 05:16:54;;;;;;;;;;;19.40;39.30;;;;;;491593;240;2188;-53
2020/12/20 05:18:55;;;;;;;;;;;19.40;39.30;;;;;;491616;240;963;-53
2020/12/20 05:20:57;;;;;;;;;;;19.40;39.20;;;;;;491692;240;1024;-53
2020/12/20 05:22:58;;;;;;;;;;;19.40;39.20;;;;;;491625;240;1184;-53
2020/12/20 05:24:59;;;;;;;;;;;19.40;39.20;;;;;;491738;240;1079;-53
2020/12/20 05:27:00;;;;;;;;;;;19.40;39.20;;;;;;491618;240;988;-53
2020/12/20 05:29:02;;;;;;;;;;;19.40;39.20;;;;;;491643;240;1046;-53
2020/12/20 05:31:03;;;;;;;;;;;19.40;39.20;;;;;;491677;240;1047;-53
2020/12/20 05:33:04;;;;;;;;;;;19.50;39.20;;;;;;491650;240;1058;-53
2020/12/20 05:35:06;;;;;;;;;;;19.50;39.20;;;;;;491610;240;962;-53
2020/12/20 05:37:07;;;;;;;;;;;19.40;39.10;;;;;;491832;240;2132;-53
2020/12/20 05:39:08;;;;;;;;;;;19.50;39.10;;;;;;491603;240;1303;-53
2020/12/20 05:41:10;;;;;;;;;;;19.50;39.10;;;;;;491590;240;1024;-53
2020/12/20 05:43:14;;;;;;;;;;;19.50;39.20;;;;;;491622;240;1094;-53
2020/12/20 05:45:12;;;;;;;;;;;19.50;39.10;;;;;;491649;241;1838;-53
2020/12/20 05:47:14;;;;;;;;;;;19.50;39.10;;;;;;491871;240;1041;-53
2020/12/20 05:49:15;;;;;;;;;;;19.50;39.10;;;;;;491688;240;1089;-53
2020/12/20 05:51:16;;;;;;;;;;;19.50;39.10;;;;;;491696;240;1015;-52
2020/12/20 05:53:18;;;;;;;;;;;19.50;39.10;;;;;;491614;240;1156;-53
2020/12/20 05:55:19;;;;;;;;;;;19.50;39.10;;;;;;491598;240;1060;-53
2020/12/20 05:57:20;;;;;;;;;;;19.50;39.10;;;;;;491615;240;2149;-53
2020/12/20 05:59:21;;;;;;;;;;;19.50;39.00;;;;;;491804;240;940;-53
2020/12/20 06:01:23;;;;;;;;;;;19.60;39.10;;;;;;491609;240;1062;-53
2020/12/20 06:03:24;;;;;;;;;;;19.60;39.10;;;;;;491740;240;1070;-53
2020/12/20 06:05:25;;;;;;;;;;;19.60;39.10;;;;;;491622;240;1274;-53
2020/12/20 06:07:27;;;;;;;;;;;19.60;39.00;;;;;;491642;240;1171;-53
2020/12/20 06:09:28;;;;;;;;;;;19.60;39.00;;;;;;491715;240;1239;-53
2020/12/20 06:11:29;;;;;;;;;;;19.60;39.00;;;;;;491734;240;983;-53
2020/12/20 06:13:30;;;;;;;;;;;19.60;39.00;;;;;;491709;240;1024;-53
2020/12/20 06:15:32;;;;;;;;;;;19.60;39.00;;;;;;491754;240;1049;-53
2020/12/20 06:17:33;;;;;;;;;;;19.60;39.00;;;;;;491597;240;2192;-53
2020/12/20 06:19:34;;;;;;;;;;;19.60;38.90;;;;;;491763;240;1149;-53
2020/12/20 06:21:35;;;;;;;;;;;19.60;39.00;;;;;;491725;240;1045;-53
2020/12/20 06:23:37;;;;;;;;;;;19.60;38.90;;;;;;491630;240;1301;-53
2020/12/20 06:25:38;;;;;;;;;;;19.60;38.90;;;;;;491676;240;1211;-53
2020/12/20 06:27:39;;;;;;;;;;;19.70;39.00;;;;;;491777;240;979;-53
2020/12/20 06:29:41;;;;;;;;;;;19.70;38.90;;;;;;491751;240;1015;-53
2020/12/20 06:31:42;;;;;;;;;;;19.70;39.00;;;;;;491653;240;1098;-54
2020/12/20 06:33:44;;;;;;;;;;;19.70;38.90;;;;;;491791;240;1039;-53
2020/12/20 06:35:45;;;;;;;;;;;19.70;38.90;;;;;;491649;240;1056;-53
2020/12/20 06:37:53;;;;;;;;;;;19.70;38.90;;;;;;491672;240;2149;-53
2020/12/20 06:39:55;;;;;;;;;;;19.70;38.90;;;;;;491614;240;1402;-53
2020/12/20 06:41:56;;;;;;;;;;;19.70;38.90;;;;;;491606;240;1052;-54
2020/12/20 06:43:57;;;;;;;;;;;19.70;37.60;;;;;;491719;240;1071;-53
2020/12/20 06:45:58;;;;;;;;;;;19.70;38.90;;;;;;491663;240;1017;-53
2020/12/20 06:48:00;;;;;;;;;;;19.70;38.80;;;;;;491627;240;1057;-52
2020/12/20 06:50:01;;;;;;;;;;;19.70;38.80;;;;;;491793;240;1069;-53
2020/12/20 06:52:02;;;;;;;;;;;19.70;38.80;;;;;;491651;240;1087;-53
2020/12/20 06:54:03;;;;;;;;;;;19.70;38.80;;;;;;491584;238;1284;-53
2020/12/20 06:56:05;;;;;;;;;;;19.70;38.80;;;;;;491638;240;1007;-53
2020/12/20 06:58:06;;;;;;;;;;;19.80;38.90;;;;;;491641;240;2196;-53
2020/12/20 07:00:07;;;;;;;;;;;19.80;38.80;;;;;;491653;240;1054;-53
2020/12/20 07:02:09;;;;;;;;;;;19.80;38.90;;;;;;491776;240;1033;-53
2020/12/20 07:04:10;;;;;;;;;;;19.70;38.80;;;;;;491743;240;1088;-53
2020/12/20 07:06:11;;;;;;;;;;;19.70;37.50;;;;;;491866;240;1040;-53
2020/12/20 07:08:12;;;;;;;;;;;19.80;38.80;;;;;;491604;240;1222;-53
2020/12/20 07:10:14;;;;;;;;;;;19.80;38.80;;;;;;491770;240;1162;-53
2020/12/20 07:12:15;;;;;;;;;;;19.80;38.80;;;;;;491598;240;1258;-54
2020/12/20 07:14:16;;;;;;;;;;;19.80;38.80;;;;;;491627;240;1053;-53
2020/12/20 07:16:18;;;;;;;;;;;19.80;38.80;;;;;;491619;240;1058;-53
2020/12/20 07:18:19;;;;;;;;;;;19.80;38.80;;;;;;491712;240;2132;-53
2020/12/20 07:20:20;;;;;;;;;;;19.80;38.70;;;;;;491794;240;1021;-53
2020/12/20 07:22:21;;;;;;;;;;;19.80;38.80;;;;;;491667;240;1182;-53
2020/12/20 07:24:23;;;;;;;;;;;19.80;38.70;;;;;;491712;240;1121;-53
2020/12/20 07:26:24;;;;;;;;;;;19.80;38.80;;;;;;491709;240;1027;-53
2020/12/20 07:28:25;;;;;;;;;;;19.80;38.70;;;;;;491631;240;1038;-53
2020/12/20 07:30:28;;;;;;;;;;;19.80;38.70;;;;;;491539;240;1130;-53
2020/12/20 07:32:28;;;;;;;;;;;19.80;38.70;;;;;;491640;240;1966;-53
2020/12/20 07:34:29;;;;;;;;;;;19.80;37.40;;;;;;491676;240;1019;-53
2020/12/20 07:36:30;;;;;;;;;;;19.80;38.70;;;;;;491617;240;1198;-53
2020/12/20 07:38:32;;;;;;;;;;;19.80;38.70;;;;;;491701;240;2125;-53
2020/12/20 07:40:34;;;;;;;;;;;19.80;38.70;;;;;;491600;240;1379;-53
2020/12/20 07:42:36;;;;;;;;;;;19.80;38.60;;;;;;491699;240;1031;-53
2020/12/20 07:44:37;;;;;;;;;;;19.80;38.70;;;;;;491856;240;1055;-53
2020/12/20 07:46:38;;;;;;;;;;;19.90;38.70;;;;;;491598;240;1220;-53
2020/12/20 07:48:39;;;;;;;;;;;19.80;38.70;;;;;;491627;240;961;-53
2020/12/20 07:50:41;;;;;;;;;;;19.90;39.00;;;;;;491859;240;1032;-53
2020/12/20 07:52:42;;;;;;;;;;;20.00;38.80;;;;;;491755;240;1025;-53
2020/12/20 07:54:43;;;;;;;;;;;20.00;38.60;;;;;;491836;240;1140;-53
2020/12/20 07:56:44;;;;;;;;;;;20.00;38.60;;;;;;491772;240;1072;-53
2020/12/20 07:58:46;;;;;;;;;;;19.90;38.70;;;;;;491768;240;2183;-53
2020/12/20 08:00:48;;;;;;;;;;;19.90;38.80;;;;;;491614;240;1053;-53
2020/12/20 08:02:48;;;;;;;;;;;19.80;38.90;;;;;;491672;240;1837;-53
2020/12/20 08:04:50;;;;;;;;;;;19.80;39.00;;;;;;491845;240;1048;-53
2020/12/20 08:06:51;;;;;;;;;;;19.70;39.00;;;;;;491555;240;1085;-53
2020/12/20 08:08:52;;;;;;;;;;;19.70;39.10;;;;;;491697;240;949;-53
2020/12/20 08:10:53;;;;;;;;;;;19.60;39.20;;;;;;491601;240;1207;-53
2020/12/20 08:12:55;;;;;;;;;;;19.60;39.30;;;;;;491837;240;1073;-53
2020/12/20 08:14:56;;;;;;;;;;;19.50;39.30;;;;;;491632;240;1060;-52
2020/12/20 08:16:57;;;;;;;;;;;19.50;39.40;;;;;;491636;240;1253;-53
2020/12/20 08:18:59;;;;;;;;;;;19.50;39.50;;;;;;491648;240;2132;-53
2020/12/20 08:21:00;;;;;;;;;;;19.40;39.50;;;;;;491608;240;1017;-53
2020/12/20 08:23:01;;;;;;;;;;;19.40;39.60;;;;;;491583;240;1037;-53
2020/12/20 08:25:02;;;;;;;;;;;19.40;39.70;;;;;;491691;240;1066;-53
2020/12/20 08:27:04;;;;;;;;;;;19.30;39.70;;;;;;491533;240;975;-53
2020/12/20 08:29:05;;;;;;;;;;;19.30;39.80;;;;;;491596;240;983;-53
2020/12/20 08:31:06;;;;;;;;;;;19.20;38.60;;;;;;491653;240;1035;-53
2020/12/20 08:33:07;;;;;;;;;;;19.20;39.90;;;;;;491685;240;1006;-53
2020/12/20 08:35:09;;;;;;;;;;;19.20;39.90;;;;;;491867;240;1043;-53
2020/12/20 08:37:10;;;;;;;;;;;19.10;40.00;;;;;;491708;240;1042;-53
2020/12/20 08:39:11;;;;;;;;;;;19.10;40.00;;;;;;491746;240;2145;-52
2020/12/20 08:41:13;;;;;;;;;;;19.10;40.10;;;;;;491783;240;1161;-53
2020/12/20 08:43:14;;;;;;;;;;;19.10;40.20;;;;;;491773;240;1029;-53
2020/12/20 08:45:15;;;;;;;;;;;19.00;40.10;;;;;;491718;240;1041;-53
2020/12/20 08:47:16;;;;;;;;;;;19.00;40.20;;;;;;491637;240;1033;-53
2020/12/20 08:49:18;;;;;;;;;;;19.00;40.20;;;;;;492065;240;1015;-53
2020/12/20 08:51:19;;;;;;;;;;;19.00;40.20;;;;;;491736;240;1041;-53
2020/12/20 08:53:20;;;;;;;;;;;18.90;40.20;;;;;;491633;240;1038;-53
2020/12/20 08:55:21;;;;;;;;;;;18.90;40.30;;;;;;491657;240;1029;-53
2020/12/20 08:57:23;;;;;;;;;;;18.90;40.30;;;;;;491647;240;1162;-53
2020/12/20 08:59:24;;;;;;;;;;;18.90;40.40;;;;;;491622;240;2188;-53
2020/12/20 09:01:26;;;;;;;;;;;18.90;40.40;;;;;;491622;240;1050;-53
2020/12/20 09:03:28;;;;;;;;;;;18.80;40.40;;;;;;491663;240;1020;-53
2020/12/20 09:05:29;;;;;;;;;;;18.80;40.40;;;;;;491685;240;1176;-52
2020/12/20 09:07:30;;;;;;;;;;;18.80;40.40;;;;;;491636;240;1058;-53
2020/12/20 09:09:32;;;;;;;;;;;18.80;39.10;;;;;;491612;240;1047;-52
2020/12/20 09:11:33;;;;;;;;;;;18.80;40.50;;;;;;491602;240;1128;-53
2020/12/20 09:13:34;;;;;;;;;;;18.80;40.50;;;;;;491648;240;1033;-53
2020/12/20 09:15:35;;;;;;;;;;;18.80;40.50;;;;;;491714;240;1059;-53
2020/12/20 09:17:37;;;;;;;;;;;18.80;40.60;;;;;;491776;240;1051;-53
2020/12/20 09:19:38;;;;;;;;;;;18.70;40.50;;;;;;491614;240;2184;-52
2020/12/20 09:21:39;;;;;;;;;;;18.70;40.60;;;;;;491678;240;1170;-53
2020/12/20 09:23:41;;;;;;;;;;;18.70;40.60;;;;;;491693;240;1038;-52
2020/12/20 09:25:43;;;;;;;;;;;18.70;40.60;;;;;;491611;240;1070;-53
2020/12/20 09:27:43;;;;;;;;;;;18.70;40.60;;;;;;491639;240;2364;-53
2020/12/20 09:29:45;;;;;;;;;;;18.60;40.60;;;;;;491643;240;1003;-53
2020/12/20 09:31:46;;;;;;;;;;;18.60;40.60;;;;;;491677;240;1065;-53
2020/12/20 09:33:47;;;;;;;;;;;18.60;40.60;;;;;;491975;240;959;-53
2020/12/20 09:35:48;;;;;;;;;;;18.60;40.70;;;;;;491974;240;1052;-53
2020/12/20 09:37:50;;;;;;;;;;;18.60;39.40;;;;;;491764;240;1071;-53
2020/12/20 09:39:51;;;;;;;;;;;18.60;40.70;;;;;;491600;240;2194;-52
2020/12/20 09:41:52;;;;;;;;;;;18.60;40.70;;;;;;491687;240;1156;-53
2020/12/20 09:43:53;;;;;;;;;;;18.50;40.70;;;;;;491666;240;1040;-53
2020/12/20 09:45:55;;;;;;;;;;;18.60;40.80;;;;;;491849;240;1157;-53
2020/12/20 09:47:56;;;;;;;;;;;18.50;40.70;;;;;;491566;240;1258;-53
2020/12/20 09:49:57;;;;;;;;;;;18.50;40.70;;;;;;491611;240;1206;-53
2020/12/20 09:51:59;;;;;;;;;;;18.50;40.80;;;;;;491552;240;1251;-52
2020/12/20 09:54:00;;;;;;;;;;;18.50;40.80;;;;;;491564;240;1074;-53
2020/12/20 09:56:01;;;;;;;;;;;18.50;40.80;;;;;;491895;240;1311;-53
2020/12/20 09:58:02;;;;;;;;;;;18.50;40.80;;;;;;491590;240;1155;-53
2020/12/20 10:00:04;;;;;;;;;;;18.50;40.80;;;;;;491545;240;2140;-53
2020/12/20 10:02:05;;;;;;;;;;;18.50;40.80;;;;;;491492;240;986;-53
2020/12/20 10:04:06;;;;;;;;;;;18.40;40.80;;;;;;491529;240;1061;-53
2020/12/20 10:06:07;;;;;;;;;;;18.40;40.80;;;;;;491737;240;1079;-53
2020/12/20 10:08:09;;;;;;;;;;;18.40;40.80;;;;;;491516;240;1034;-53
2020/12/20 10:10:10;;;;;;;;;;;18.40;40.80;;;;;;491754;240;1041;-52
2020/12/20 10:12:11;;;;;;;;;;;18.40;40.80;;;;;;491582;239;1313;-53
2020/12/20 10:14:13;;;;;;;;;;;18.40;40.80;;;;;;491538;240;1072;-53
2020/12/20 10:16:14;;;;;;;;;;;18.40;40.90;;;;;;491545;240;1072;-53
2020/12/20 10:18:15;;;;;;;;;;;18.40;40.90;;;;;;491572;240;1071;-53
2020/12/20 10:20:16;;;;;;;;;;;18.40;40.90;;;;;;491601;240;2203;-53
2020/12/20 10:22:18;;;;;;;;;;;18.40;40.90;;;;;;491551;240;983;-53
2020/12/20 10:24:19;;;;;;;;;;;18.30;40.80;;;;;;491619;240;968;-53
2020/12/20 10:26:20;;;;;;;;;;;18.30;40.80;;;;;;491631;240;1057;-53
2020/12/20 10:28:22;;;;;;;;;;;18.30;40.80;;;;;;491587;240;1172;-52
2020/12/20 10:30:23;;;;;;;;;;;18.30;40.90;;;;;;491777;240;1041;-53
2020/12/20 10:32:24;;;;;;;;;;;18.30;40.90;;;;;;491559;240;998;-53
2020/12/20 10:34:25;;;;;;;;;;;18.30;40.90;;;;;;491646;240;1046;-53
2020/12/20 10:36:27;;;;;;;;;;;18.30;40.90;;;;;;491514;240;1223;-53
2020/12/20 10:38:28;;;;;;;;;;;18.30;40.90;;;;;;491581;240;1137;-53
2020/12/20 10:40:29;;;;;;;;;;;18.30;40.90;;;;;;491519;240;2184;-53
2020/12/20 10:42:30;;;;;;;;;;;18.30;40.90;;;;;;491591;240;1392;-53
2020/12/20 10:44:32;;;;;;;;;;;18.30;40.90;;;;;;491678;240;1076;-53
2020/12/20 10:46:33;;;;;;;;;;;18.30;40.90;;;;;;491638;240;1288;-52
2020/12/20 10:48:35;;;;;;;;;;;18.30;41.00;;;;;;491560;240;1032;-53
2020/12/20 10:50:36;;;;;;;;;;;18.30;41.00;;;;;;491593;240;1152;-53
2020/12/20 10:52:37;;;;;;;;;;;18.20;41.00;;;;;;491591;240;1144;-52
2020/12/20 10:54:38;;;;;;;;;;;18.20;40.90;;;;;;491535;240;1063;-53
2020/12/20 10:56:40;;;;;;;;;;;18.20;41.00;;;;;;491594;240;1112;-53
2020/12/20 10:58:41;;;;;;;;;;;18.20;41.00;;;;;;491593;240;2164;-53
2020/12/20 11:00:42;;;;;;;;;;;18.20;41.00;;;;;;491577;240;1119;-53
2020/12/20 11:02:44;;;;;;;;;;;18.30;40.90;;;;;;491567;240;1069;-53
2020/12/20 11:04:45;;;;;;;;;;;18.30;40.80;;;;;;491571;240;1088;-53
2020/12/20 11:06:46;;;;;;;;;;;18.30;40.70;;;;;;491697;240;1219;-53
2020/12/20 11:08:47;;;;;;;;;;;18.30;40.70;;;;;;491565;240;1064;-53
2020/12/20 11:10:49;;;;;;;;;;;18.40;40.70;;;;;;491591;240;1057;-53
2020/12/20 11:12:50;;;;;;;;;;;18.40;40.60;;;;;;491670;240;1154;-53
2020/12/20 11:14:51;;;;;;;;;;;18.40;40.60;;;;;;491733;240;1081;-53
2020/12/20 11:16:53;;;;;;;;;;;18.40;40.50;;;;;;491670;240;1105;-52
2020/12/20 11:18:54;;;;;;;;;;;18.40;40.50;;;;;;491910;240;2148;-53
2020/12/20 11:20:55;;;;;;;;;;;18.40;40.40;;;;;;491638;240;1098;-53
2020/12/20 11:22:57;;;;;;;;;;;18.40;40.40;;;;;;491811;240;1088;-53
2020/12/20 11:24:58;;;;;;;;;;;18.50;40.30;;;;;;491609;241;2432;-53
2020/12/20 11:26:59;;;;;;;;;;;18.50;40.30;;;;;;491627;240;1103;-53
2020/12/20 11:29:00;;;;;;;;;;;18.50;38.90;;;;;;491609;240;1159;-53
2020/12/20 11:31:01;;;;;;;;;;;18.60;40.30;;;;;;491563;240;1066;-53
2020/12/20 11:33:03;;;;;;;;;;;18.60;40.20;;;;;;491574;238;1266;-53
2020/12/20 11:35:04;;;;;;;;;;;18.60;40.20;;;;;;491612;240;1071;-52
2020/12/20 11:37:05;;;;;;;;;;;18.60;40.10;;;;;;491709;240;1035;-53
2020/12/20 11:39:07;;;;;;;;;;;18.60;40.10;;;;;;491566;240;2153;-53
2020/12/20 11:41:08;;;;;;;;;;;18.70;40.10;;;;;;491685;240;1125;-53
2020/12/20 11:43:09;;;;;;;;;;;18.70;40.10;;;;;;491592;240;1167;-53
2020/12/20 11:45:10;;;;;;;;;;;18.70;40.00;;;;;;491541;240;1091;-53
2020/12/20 11:47:12;;;;;;;;;;;18.70;40.00;;;;;;491514;240;1054;-53
2020/12/20 11:49:13;;;;;;;;;;;18.70;39.90;;;;;;491635;240;1005;-53
2020/12/20 11:51:14;;;;;;;;;;;18.70;39.90;;;;;;491632;240;986;-53
2020/12/20 11:53:15;;;;;;;;;;;18.80;39.90;;;;;;491542;240;1069;-53
2020/12/20 11:55:17;;;;;;;;;;;18.80;39.90;;;;;;491637;240;1035;-53
2020/12/20 11:57:18;;;;;;;;;;;18.80;39.80;;;;;;491583;240;1047;-53